createdAt,value
2018-08-11T00:01:42.781Z,81.70
2018-08-11T00:04:12.518Z,81.80
2018-08-11T00:06:43.099Z,82.00
2018-08-11T00:09:13.169Z,81.90
2018-08-11T00:11:42.893Z,82.80
2018-08-11T00:14:13.093Z,82.60
2018-08-11T00:16:42.746Z,82.90
2018-08-11T00:19:12.428Z,82.90
2018-08-11T00:21:43.136Z,83.30
2018-08-11T00:24:12.825Z,82.90
2018-08-11T00:26:42.451Z,83.50
2018-08-11T00:29:12.521Z,83.30
2018-08-11T00:31:42.232Z,83.50
2018-08-11T00:34:11.921Z,83.50
2018-08-11T00:36:43.312Z,83.40
2018-08-11T00:39:13.583Z,84.00
2018-08-11T00:41:43.230Z,84.10
2018-08-11T00:44:12.939Z,84.20
2018-08-11T00:46:42.617Z,84.30
2018-08-11T00:49:12.305Z,84.80
2018-08-11T00:51:42.629Z,84.60
2018-08-11T00:54:12.336Z,84.80
2018-08-11T00:56:41.938Z,84.80
2018-08-11T00:59:11.765Z,84.60
2018-08-11T01:01:41.386Z,84.80
2018-08-11T01:04:11.028Z,84.80
2018-08-11T01:06:42.301Z,85.10
2018-08-11T01:09:12.463Z,85.40
2018-08-11T01:11:42.572Z,85.60
2018-08-11T01:14:12.816Z,85.40
2018-08-11T01:16:43.575Z,85.40
2018-08-11T01:19:14.411Z,85.50
2018-08-11T01:21:44.343Z,85.50
2018-08-11T01:24:14.448Z,85.70
2018-08-11T01:26:44.115Z,85.90
2018-08-11T01:29:13.863Z,86.30
2018-08-11T01:31:43.449Z,86.30
2018-08-11T01:34:13.954Z,86.60
2018-08-11T01:36:44.553Z,86.80
2018-08-11T01:39:14.358Z,86.80
2018-08-11T01:41:43.989Z,87.10
2018-08-11T01:44:14.230Z,87.40
2018-08-11T01:46:43.869Z,87.70
2018-08-11T01:49:13.767Z,88.00
2018-08-11T01:51:43.993Z,88.10
2018-08-11T01:54:13.981Z,87.90
2018-08-11T01:56:43.822Z,88.40
2018-08-11T01:59:13.668Z,88.50
2018-08-11T02:01:43.303Z,88.80
2018-08-11T02:04:13.507Z,88.70
2018-08-11T02:06:43.936Z,88.70
2018-08-11T02:09:14.308Z,89.20
2018-08-11T02:11:43.953Z,89.00
2018-08-11T02:14:14.050Z,89.30
2018-08-11T02:16:43.738Z,89.50
2018-08-11T02:19:13.803Z,89.40
2018-08-11T02:21:44.123Z,89.50
2018-08-11T02:24:14.503Z,89.70
2018-08-11T02:26:44.167Z,90.10
2018-08-11T02:29:14.762Z,90.20
2018-08-11T02:31:44.351Z,90.30
2018-08-11T02:34:14.143Z,90.40
2018-08-11T02:36:43.927Z,90.40
2018-08-11T02:39:15.487Z,90.60
2018-08-11T02:41:45.136Z,90.60
2018-08-11T02:44:15.665Z,90.60
2018-08-11T02:46:45.346Z,90.60
2018-08-11T02:49:15.396Z,90.60
2018-08-11T02:51:45.473Z,90.60
2018-08-11T02:54:15.534Z,91.10
2018-08-11T02:56:45.179Z,91.00
2018-08-11T02:59:19.565Z,91.00
2018-08-11T03:01:49.204Z,91.00
2018-08-11T03:04:18.975Z,91.10
2018-08-11T03:06:48.670Z,91.20
2018-08-11T03:09:18.250Z,91.40
2018-08-11T03:11:47.847Z,91.40
2018-08-11T03:14:17.927Z,91.40
2018-08-11T03:16:47.632Z,91.60
2018-08-11T03:19:17.262Z,91.60
2018-08-11T03:21:46.883Z,91.60
2018-08-11T03:24:16.520Z,91.60
2018-08-11T03:26:46.095Z,91.60
2018-08-11T03:29:16.454Z,91.70
2018-08-11T03:31:46.138Z,91.70
2018-08-11T03:34:15.971Z,91.80
2018-08-11T03:36:45.672Z,91.90
2018-08-11T03:39:15.437Z,91.90
2018-08-11T03:41:45.059Z,91.90
2018-08-11T03:44:15.499Z,92.00
2018-08-11T03:46:45.188Z,92.20
2018-08-11T03:49:15.359Z,92.30
2018-08-11T03:51:45.069Z,92.30
2018-08-11T03:54:15.669Z,92.20
2018-08-11T03:56:45.292Z,92.20
2018-08-11T03:59:15.799Z,92.30
2018-08-11T04:01:45.476Z,92.40
2018-08-11T04:04:15.913Z,92.40
2018-08-11T04:06:45.560Z,92.30
2018-08-11T04:09:15.904Z,92.10
2018-08-11T04:11:45.683Z,92.20
2018-08-11T04:14:15.983Z,92.10
2018-08-11T04:16:45.623Z,92.00
2018-08-11T04:19:16.053Z,92.00
2018-08-11T04:21:45.845Z,92.00
2018-08-11T04:24:16.450Z,92.00
2018-08-11T04:26:46.093Z,91.90
2018-08-11T04:29:16.171Z,91.70
2018-08-11T04:31:45.773Z,91.60
2018-08-11T04:34:16.186Z,91.50
2018-08-11T04:36:45.742Z,91.00
2018-08-11T04:39:15.975Z,90.70
2018-08-11T04:41:45.623Z,90.80
2018-08-11T04:44:15.655Z,90.60
2018-08-11T04:46:45.262Z,90.40
2018-08-11T04:49:15.751Z,90.00
2018-08-11T04:51:45.367Z,90.00
2018-08-11T04:54:15.316Z,89.40
2018-08-11T04:56:44.930Z,88.70
2018-08-11T04:59:15.012Z,88.30
2018-08-11T05:01:44.616Z,88.20
2018-08-11T05:04:14.249Z,87.50
2018-08-11T05:06:44.131Z,86.60
2018-08-11T05:09:14.947Z,86.70
2018-08-11T05:11:44.582Z,85.50
2018-08-11T05:14:14.819Z,84.10
2018-08-11T05:16:44.500Z,83.70
2018-08-11T05:19:14.243Z,82.70
2018-08-11T05:21:44.079Z,82.70
2018-08-11T05:24:13.740Z,81.90
2018-08-11T05:26:43.384Z,80.50
2018-08-11T05:29:13.439Z,79.70
2018-08-11T05:31:43.097Z,79.70
2018-08-11T05:34:12.677Z,79.90
2018-08-11T05:36:43.563Z,79.90
2018-08-11T05:39:14.611Z,80.20
2018-08-11T05:41:44.374Z,79.90
2018-08-11T05:44:14.402Z,80.00
2018-08-11T05:46:44.028Z,80.60
2018-08-11T05:49:13.634Z,80.00
2018-08-11T05:51:43.833Z,80.60
2018-08-11T05:54:13.462Z,80.30
2018-08-11T05:56:43.156Z,80.20
2018-08-11T05:59:13.535Z,79.90
2018-08-11T06:01:43.199Z,80.00
2018-08-11T06:04:13.063Z,79.70
2018-08-11T06:06:43.722Z,79.60
2018-08-11T06:09:13.484Z,78.80
2018-08-11T06:11:43.197Z,76.90
2018-08-11T06:14:13.485Z,76.00
2018-08-11T06:16:43.167Z,75.20
2018-08-11T06:19:12.914Z,74.70
2018-08-11T06:21:43.449Z,74.20
2018-08-11T06:24:13.111Z,74.30
2018-08-11T06:26:42.710Z,74.00
2018-08-11T06:29:13.478Z,73.50
2018-08-11T06:31:43.176Z,73.20
2018-08-11T06:34:12.877Z,73.30
2018-08-11T06:36:43.673Z,73.30
2018-08-11T06:39:14.694Z,73.10
2018-08-11T06:41:44.718Z,72.20
2018-08-11T06:44:14.991Z,72.30
2018-08-11T06:46:44.737Z,72.40
2018-08-11T06:49:14.317Z,73.00
2018-08-11T06:51:44.191Z,72.60
2018-08-11T06:54:13.880Z,72.70
2018-08-11T06:56:43.577Z,72.80
2018-08-11T06:59:14.838Z,70.30
2018-08-11T07:01:44.727Z,70.90
2018-08-11T07:04:14.398Z,69.00
2018-08-11T07:06:44.372Z,67.70
2018-08-11T07:09:14.004Z,66.80
2018-08-11T07:11:43.746Z,66.90
2018-08-11T07:14:13.995Z,67.10
2018-08-11T07:16:43.676Z,67.10
2018-08-11T07:19:13.888Z,66.80
2018-08-11T07:21:44.339Z,66.40
2018-08-11T07:24:14.464Z,66.20
2018-08-11T07:26:44.706Z,66.10
2018-08-11T07:29:15.297Z,67.70
2018-08-11T07:31:44.846Z,67.80
2018-08-11T07:34:14.497Z,67.60
2018-08-11T07:36:44.401Z,67.50
2018-08-11T07:39:14.090Z,66.50
2018-08-11T07:41:43.737Z,66.30
2018-08-11T07:44:13.929Z,66.00
2018-08-11T07:46:43.581Z,66.10
2018-08-11T07:49:13.394Z,65.60
2018-08-11T07:51:45.936Z,66.20
2018-08-11T07:54:15.584Z,66.10
2018-08-11T07:56:45.172Z,66.40
2018-08-11T07:59:15.019Z,66.50
2018-08-11T08:01:44.671Z,66.70
2018-08-11T08:04:14.318Z,67.90
2018-08-11T08:06:44.324Z,67.80
2018-08-11T08:09:14.757Z,66.90
2018-08-11T08:11:44.489Z,66.60
2018-08-11T08:14:14.844Z,67.70
2018-08-11T08:16:44.523Z,65.60
2018-08-11T08:19:14.350Z,67.30
2018-08-11T08:21:44.533Z,65.50
2018-08-11T08:24:14.139Z,66.30
2018-08-11T08:26:43.932Z,67.80
2018-08-11T08:29:15.003Z,66.30
2018-08-11T08:31:44.664Z,65.90
2018-08-11T08:34:14.371Z,67.30
2018-08-11T08:36:44.586Z,67.10
2018-08-11T08:39:14.275Z,65.90
2018-08-11T08:41:43.929Z,66.40
2018-08-11T08:44:14.099Z,66.50
2018-08-11T08:46:43.914Z,64.80
2018-08-11T08:49:15.065Z,64.10
2018-08-11T08:51:44.848Z,65.60
2018-08-11T08:54:14.532Z,64.30
2018-08-11T08:56:45.146Z,64.80
2018-08-11T08:59:15.703Z,63.50
2018-08-11T09:01:46.258Z,62.80
2018-08-11T09:04:17.558Z,63.70
2018-08-11T09:06:47.220Z,64.10
2018-08-11T09:09:16.938Z,64.70
2018-08-11T09:11:47.296Z,64.40
2018-08-11T09:14:24.807Z,63.10
2018-08-11T09:16:54.563Z,61.70
2018-08-11T09:19:24.201Z,61.40
2018-08-11T09:21:53.913Z,61.60
2018-08-11T09:24:23.543Z,61.60
2018-08-11T09:26:53.423Z,59.40
2018-08-11T09:29:23.070Z,60.10
2018-08-11T09:31:52.674Z,59.50
2018-08-11T09:34:22.420Z,59.40
2018-08-11T09:36:52.103Z,59.30
2018-08-11T09:39:21.763Z,58.70
2018-08-11T09:41:51.420Z,59.80
2018-08-11T09:44:21.072Z,60.30
2018-08-11T09:46:50.686Z,59.40
2018-08-11T09:49:20.345Z,58.90
2018-08-11T09:51:50.016Z,58.10
2018-08-11T09:54:19.613Z,56.20
2018-08-11T09:56:49.288Z,54.80
2018-08-11T09:59:18.987Z,55.30
2018-08-11T10:01:52.676Z,53.40
2018-08-11T10:04:22.287Z,53.10
2018-08-11T10:06:51.945Z,53.00
2018-08-11T10:09:21.575Z,52.20
2018-08-11T10:11:51.257Z,52.40
2018-08-11T10:14:20.837Z,52.80
2018-08-11T10:16:50.466Z,52.60
2018-08-11T10:19:20.186Z,52.80
2018-08-11T10:21:49.853Z,53.00
2018-08-11T10:24:19.594Z,53.10
2018-08-11T10:26:49.210Z,53.00
2018-08-11T10:29:18.888Z,53.40
2018-08-11T10:31:48.600Z,51.90
2018-08-11T10:34:20.279Z,52.70
2018-08-11T10:36:50.581Z,53.10
2018-08-11T10:39:20.330Z,51.80
2018-08-11T10:41:50.254Z,51.20
2018-08-11T10:44:22.790Z,50.90
2018-08-11T10:46:52.371Z,51.20
2018-08-11T10:49:22.035Z,51.80
2018-08-11T10:51:51.748Z,53.30
2018-08-11T10:54:21.414Z,52.80
2018-08-11T10:56:53.691Z,54.60
2018-08-11T10:59:23.343Z,53.30
2018-08-11T11:01:53.060Z,53.00
2018-08-11T11:04:22.791Z,52.40
2018-08-11T11:06:52.466Z,52.70
2018-08-11T11:09:22.081Z,53.70
2018-08-11T11:11:51.660Z,53.10
2018-08-11T11:14:21.277Z,53.20
2018-08-11T11:16:50.998Z,51.40
2018-08-11T11:19:20.735Z,52.10
2018-08-11T11:21:50.418Z,51.80
2018-08-11T11:24:20.029Z,51.40
2018-08-11T11:26:49.616Z,50.20
2018-08-11T11:29:19.293Z,49.00
2018-08-11T11:31:48.931Z,46.20
2018-08-11T11:34:18.529Z,47.50
2018-08-11T11:36:48.191Z,45.10
2018-08-11T11:39:17.796Z,44.50
2018-08-11T11:41:47.456Z,44.40
2018-08-11T11:44:17.464Z,43.80
2018-08-11T11:46:47.184Z,43.60
2018-08-11T11:49:16.820Z,43.40
2018-08-11T11:51:46.467Z,44.80
2018-08-11T11:54:16.081Z,41.30
2018-08-11T11:56:45.766Z,41.30
2018-08-11T11:59:16.053Z,42.90
2018-08-11T12:01:45.730Z,42.50
2018-08-11T12:04:15.355Z,42.10
2018-08-11T12:06:45.332Z,43.90
2018-08-11T12:09:14.984Z,42.20
2018-08-11T12:11:44.760Z,41.10
2018-08-11T12:14:15.367Z,41.00
2018-08-11T12:16:45.053Z,42.20
2018-08-11T12:19:14.793Z,42.20
2018-08-11T12:21:46.585Z,42.40
2018-08-11T12:24:16.246Z,42.30
2018-08-11T12:26:46.001Z,41.90
2018-08-11T12:29:16.200Z,42.90
2018-08-11T12:31:45.949Z,42.20
2018-08-11T12:34:15.589Z,44.60
2018-08-11T12:36:46.953Z,45.00
2018-08-11T12:39:16.629Z,44.50
2018-08-11T12:41:46.462Z,46.50
2018-08-11T12:44:17.310Z,45.10
2018-08-11T12:46:47.043Z,46.20
2018-08-11T12:49:16.758Z,45.40
2018-08-11T12:51:46.671Z,44.90
2018-08-11T12:54:16.280Z,45.70
2018-08-11T12:56:45.931Z,45.80
2018-08-11T12:59:15.956Z,45.70
2018-08-11T13:01:45.650Z,45.70
2018-08-11T13:04:15.328Z,45.90
2018-08-11T13:06:46.209Z,47.10
2018-08-11T13:09:15.849Z,47.40
2018-08-11T13:11:45.843Z,45.80
2018-08-11T13:14:15.704Z,44.20
2018-08-11T13:16:45.543Z,42.80
2018-08-11T13:19:15.310Z,40.70
2018-08-11T13:21:45.754Z,39.30
2018-08-11T13:24:15.461Z,38.40
2018-08-11T13:26:47.559Z,39.20
2018-08-11T13:29:17.634Z,41.50
2018-08-11T13:31:47.635Z,39.10
2018-08-11T13:34:17.320Z,41.20
2018-08-11T13:36:47.152Z,40.20
2018-08-11T13:39:16.818Z,39.80
2018-08-11T13:41:48.166Z,40.00
2018-08-11T13:44:19.388Z,40.30
2018-08-11T13:46:49.093Z,38.30
2018-08-11T13:49:18.730Z,37.50
2018-08-11T13:51:48.612Z,38.60
2018-08-11T13:54:18.223Z,39.60
2018-08-11T13:56:47.984Z,39.80
2018-08-11T13:59:18.041Z,39.60
2018-08-11T14:01:48.044Z,40.70
2018-08-11T14:04:17.809Z,39.30
2018-08-11T14:06:48.429Z,38.00
2018-08-11T14:09:18.072Z,35.90
2018-08-11T14:11:47.962Z,35.30
2018-08-11T14:14:18.024Z,35.20
2018-08-11T14:16:48.667Z,35.90
2018-08-11T14:19:18.331Z,34.70
2018-08-11T14:21:48.778Z,34.80
2018-08-11T14:24:18.424Z,35.00
2018-08-11T14:26:48.731Z,35.20
2018-08-11T14:29:18.700Z,34.50
2018-08-11T14:31:49.086Z,34.50
2018-08-11T14:34:18.858Z,34.60
2018-08-11T14:36:49.519Z,34.20
2018-08-11T14:39:19.240Z,34.40
2018-08-11T14:41:49.747Z,35.00
2018-08-11T14:44:19.574Z,35.10
2018-08-11T14:46:49.856Z,33.30
2018-08-11T14:49:19.450Z,33.20
2018-08-11T14:51:50.421Z,33.00
2018-08-11T14:54:20.073Z,30.70
2018-08-11T14:56:50.249Z,32.00
2018-08-11T14:59:19.834Z,32.90
2018-08-11T15:01:49.997Z,32.20
2018-08-11T15:04:19.794Z,32.90
2018-08-11T15:06:50.542Z,31.90
2018-08-11T15:09:20.186Z,30.60
2018-08-11T15:11:50.599Z,31.40
2018-08-11T15:14:20.258Z,32.30
2018-08-11T15:16:51.206Z,32.10
2018-08-11T15:19:20.868Z,32.30
2018-08-11T15:21:51.205Z,32.70
2018-08-11T15:24:20.806Z,32.40
2018-08-11T15:26:51.654Z,31.40
2018-08-11T15:29:21.359Z,32.10
2018-08-11T15:31:51.532Z,32.30
2018-08-11T15:34:21.166Z,33.60
2018-08-11T15:36:52.063Z,32.70
2018-08-11T15:39:21.869Z,33.00
2018-08-11T15:41:52.668Z,32.10
2018-08-11T15:44:23.249Z,33.10
2018-08-11T15:46:53.238Z,31.60
2018-08-11T15:49:23.337Z,33.00
2018-08-11T15:51:53.411Z,31.30
2018-08-11T15:54:23.101Z,31.40
2018-08-11T15:56:53.648Z,31.80
2018-08-11T15:59:23.517Z,32.10
2018-08-11T16:01:54.253Z,31.40
2018-08-11T16:04:30.989Z,31.90
2018-08-11T16:07:03.891Z,32.20
2018-08-11T16:09:33.704Z,32.40
2018-08-11T16:12:03.832Z,33.30
2018-08-11T16:14:33.487Z,33.60
2018-08-11T16:17:03.190Z,33.80
2018-08-11T16:19:32.944Z,33.10
2018-08-11T16:22:02.541Z,33.90
2018-08-11T16:24:32.210Z,34.20
2018-08-11T16:27:01.980Z,34.60
2018-08-11T16:29:31.645Z,35.70
2018-08-11T16:32:01.267Z,34.90
2018-08-11T16:34:30.893Z,34.00
2018-08-11T16:37:00.553Z,34.00
2018-08-11T16:39:30.297Z,34.40
2018-08-11T16:41:59.944Z,34.40
2018-08-11T16:44:29.558Z,34.70
2018-08-11T16:46:59.241Z,34.90
2018-08-11T16:49:28.850Z,34.90
2018-08-11T16:51:58.468Z,36.00
2018-08-11T16:54:28.109Z,35.30
2018-08-11T16:56:57.859Z,35.00
2018-08-11T16:59:27.487Z,35.10
2018-08-11T17:01:57.287Z,35.20
2018-08-11T17:04:26.899Z,35.20
2018-08-11T17:06:57.358Z,35.70
2018-08-11T17:09:27.133Z,36.70
2018-08-11T17:11:57.276Z,35.70
2018-08-11T17:14:26.892Z,36.90
2018-08-11T17:16:57.206Z,36.30
2018-08-11T17:19:26.910Z,36.40
2018-08-11T17:21:57.316Z,35.80
2018-08-11T17:24:27.025Z,37.00
2018-08-11T17:26:57.666Z,35.90
2018-08-11T17:29:27.560Z,35.20
2018-08-11T17:32:00.792Z,35.40
2018-08-11T17:34:31.250Z,36.40
2018-08-11T17:37:03.318Z,36.30
2018-08-11T17:39:34.121Z,36.80
2018-08-11T17:42:03.883Z,37.10
2018-08-11T17:44:34.720Z,36.50
2018-08-11T17:47:05.033Z,37.30
2018-08-11T17:49:35.606Z,36.60
2018-08-11T17:52:06.168Z,36.00
2018-08-11T17:54:36.079Z,35.90
2018-08-11T17:57:05.852Z,36.00
2018-08-11T17:59:35.450Z,35.80
2018-08-11T18:02:05.132Z,36.60
2018-08-11T18:04:34.766Z,36.30
2018-08-11T18:07:04.495Z,36.50
2018-08-11T18:09:34.057Z,36.60
2018-08-11T18:12:04.062Z,36.80
2018-08-11T18:14:33.660Z,37.10
2018-08-11T18:17:03.343Z,37.60
2018-08-11T18:19:32.965Z,37.60
2018-08-11T18:22:02.656Z,37.90
2018-08-11T18:24:32.268Z,38.00
2018-08-11T18:27:02.169Z,39.00
2018-08-11T18:29:31.892Z,39.20
2018-08-11T18:32:01.782Z,38.90
2018-08-11T18:34:31.423Z,38.40
2018-08-11T18:37:01.737Z,39.20
2018-08-11T18:39:31.386Z,39.70
2018-08-11T18:42:02.005Z,39.70
2018-08-11T18:44:31.738Z,39.50
2018-08-11T18:47:02.191Z,39.90
2018-08-11T18:49:31.844Z,40.80
2018-08-11T18:52:02.621Z,40.90
2018-08-11T18:54:32.298Z,40.90
2018-08-11T18:57:02.662Z,41.30
2018-08-11T18:59:32.357Z,40.80
2018-08-11T19:02:02.890Z,41.20
2018-08-11T19:04:32.584Z,41.50
2018-08-11T19:07:03.182Z,42.10
2018-08-11T19:09:32.805Z,42.70
2018-08-11T19:12:02.812Z,42.10
2018-08-11T19:14:32.516Z,43.00
2018-08-11T19:17:02.241Z,43.10
2018-08-11T19:19:32.096Z,43.90
2018-08-11T19:22:01.748Z,43.80
2018-08-11T19:24:31.458Z,45.00
2018-08-11T19:27:08.406Z,45.20
2018-08-11T19:29:38.038Z,45.20
2018-08-11T19:32:08.748Z,45.50
2018-08-11T19:34:38.460Z,45.90
2018-08-11T19:37:08.992Z,46.60
2018-08-11T19:39:39.203Z,47.00
2018-08-11T19:42:09.734Z,48.10
2018-08-11T19:44:39.397Z,47.70
2018-08-11T19:47:09.735Z,48.80
2018-08-11T19:49:39.450Z,49.20
2018-08-11T19:52:09.626Z,49.70
2018-08-11T19:54:40.804Z,50.90
2018-08-11T19:57:11.322Z,49.60
2018-08-11T19:59:41.074Z,50.40
2018-08-11T20:02:11.832Z,51.10
2018-08-11T20:04:41.465Z,51.40
2018-08-11T20:07:11.683Z,51.90
2018-08-11T20:09:42.010Z,51.50
2018-08-11T20:12:12.421Z,52.90
2018-08-11T20:14:42.154Z,53.10
2018-08-11T20:17:12.914Z,53.40
2018-08-11T20:19:43.111Z,53.80
2018-08-11T20:22:18.271Z,54.00
2018-08-11T20:24:48.215Z,54.40
2018-08-11T20:27:17.979Z,54.70
2018-08-11T20:29:47.608Z,54.80
2018-08-11T20:32:17.489Z,55.40
2018-08-11T20:34:47.184Z,55.20
2018-08-11T20:37:16.881Z,55.90
2018-08-11T20:39:46.622Z,56.20
2018-08-11T20:42:16.264Z,56.80
2018-08-11T20:44:45.978Z,56.80
2018-08-11T20:47:16.441Z,57.50
2018-08-11T20:49:46.353Z,57.90
2018-08-11T20:52:16.082Z,58.00
2018-08-11T20:54:45.747Z,58.80
2018-08-11T20:57:15.606Z,58.80
2018-08-11T20:59:45.378Z,59.20
2018-08-11T21:02:16.216Z,59.60
2018-08-11T21:04:45.983Z,59.90
2018-08-11T21:07:15.638Z,60.40
2018-08-11T21:09:45.814Z,60.40
2018-08-11T21:12:15.416Z,61.00
2018-08-11T21:14:45.169Z,60.90
2018-08-11T21:17:16.359Z,61.50
2018-08-11T21:19:46.069Z,61.60
2018-08-11T21:22:15.694Z,61.80
2018-08-11T21:24:45.677Z,61.60
2018-08-11T21:27:15.490Z,62.10
2018-08-11T21:29:45.166Z,62.20
2018-08-11T21:32:16.571Z,61.90
2018-08-11T21:34:46.195Z,62.60
2018-08-11T21:37:16.007Z,62.80
2018-08-11T21:39:45.625Z,62.30
2018-08-11T21:42:16.338Z,61.10
2018-08-11T21:44:46.428Z,61.70
2018-08-11T21:47:17.256Z,61.10
2018-08-11T21:49:47.849Z,59.90
2018-08-11T21:52:17.590Z,60.40
2018-08-11T21:54:47.582Z,59.50
2018-08-11T21:57:17.402Z,59.90
2018-08-11T21:59:47.298Z,60.40
2018-08-11T22:02:17.457Z,60.80
2018-08-11T22:04:47.702Z,60.10
2018-08-11T22:07:17.515Z,61.00
2018-08-11T22:09:47.387Z,61.80
2018-08-11T22:12:17.497Z,61.70
2018-08-11T22:14:47.331Z,61.80
2018-08-11T22:17:18.009Z,62.50
2018-08-11T22:19:47.799Z,63.40
2018-08-11T22:22:18.136Z,63.40
2018-08-11T22:24:48.658Z,63.00
2018-08-11T22:27:18.414Z,64.40
2018-08-11T22:29:48.015Z,63.10
2018-08-11T22:32:18.123Z,63.70
2018-08-11T22:34:47.991Z,64.10
2018-08-11T22:37:18.330Z,63.80
2018-08-11T22:39:47.982Z,64.50
2018-08-11T22:42:18.366Z,64.70
2018-08-11T22:44:48.097Z,64.90
2018-08-11T22:47:18.394Z,65.40
2018-08-11T22:49:48.012Z,65.90
2018-08-11T22:52:18.015Z,66.00
2018-08-11T22:54:47.697Z,65.90
2018-08-11T22:57:17.685Z,66.70
2018-08-11T22:59:47.641Z,66.90
2018-08-11T23:02:17.672Z,67.70
2018-08-11T23:04:47.676Z,67.80
2018-08-11T23:07:17.644Z,67.80
2018-08-11T23:09:47.649Z,67.70
2018-08-11T23:12:17.874Z,67.20
2018-08-11T23:14:47.846Z,67.50
2018-08-11T23:17:18.699Z,67.40
2018-08-11T23:19:48.325Z,67.90
2018-08-11T23:22:18.725Z,67.90
2018-08-11T23:24:48.399Z,68.20
2018-08-11T23:27:18.333Z,67.80
2018-08-11T23:29:47.973Z,67.90
2018-08-11T23:32:18.727Z,67.90
2018-08-11T23:34:48.398Z,68.40
2018-08-11T23:37:18.091Z,68.40
2018-08-11T23:39:47.796Z,68.90
2018-08-11T23:42:17.645Z,69.80
2018-08-11T23:44:47.302Z,70.20
2018-08-11T23:47:17.259Z,70.20
2018-08-11T23:49:46.965Z,70.00
2018-08-11T23:52:16.641Z,70.10
2018-08-11T23:54:46.315Z,70.40
2018-08-11T23:57:15.993Z,70.50
2018-08-11T23:59:45.724Z,71.10
